FLUGWETTER MÜNCHEN AIRPORT

[source: ADDS]
METAR
EDDM 250750Z 24004KT 150V300 9999 FEW018 SCT060 BKN120 22/18 Q1020 NOSIG =
TAF
TAF EDDM 250500Z 2506/2612 26005KT 9999 SCT025 TEMPO 2515/2519 34015G25KT TSRA BKN015CB TEMPO 2604/2608 BKN012 =
SR / SS: 03:42 / 18:59 UTC (Tag 2016-07-25)

QR-Code dieser Seite

QR-Code dieser Seite